Terminal Aerodrome Forecast
Issued by NWS

Home | Current Version | Previous Version | Graphics & Text | Print | Product List | Glossary On
Versions: 1 2 3 4 5 6 7 8 9 10 11 12 13 14 15 16
000
FTUS42 KMHX 270535
TAFOAJ
TAF
KOAJ 270535Z 2706/2806 19007KT P6SM OVC150
     FM270900 20008KT 6SM -RA BR OVC015
     FM271400 24010KT 4SM -RA BR OVC010
     FM271600 36009G16KT 3SM -RA BR OVC005
     FM280200 36008KT P6SM OVC015
      AMD LTD TO CLD VIS AND WIND=

USA.gov is the U.S. government's official web portal to all federal, state and local government web resources and services.